sensor_id;sensor_type;location;lat;lon;timestamp;P1;durP1;ratioP1;P2;durP2;ratioP2
21771;SDS011;11047;47.904;8.110;2024-02-21T00:01:15;8.68;;;3.13;;
21771;SDS011;11047;47.904;8.110;2024-02-21T00:03:42;4.03;;;2.47;;
21771;SDS011;11047;47.904;8.110;2024-02-21T00:06:09;6.10;;;2.03;;
21771;SDS011;11047;47.904;8.110;2024-02-21T00:08:36;4.35;;;2.30;;
21771;SDS011;11047;47.904;8.110;2024-02-21T00:11:03;5.50;;;2.35;;
21771;SDS011;11047;47.904;8.110;2024-02-21T00:13:30;7.47;;;2.33;;
21771;SDS011;11047;47.904;8.110;2024-02-21T00:15:59;6.32;;;2.28;;
21771;SDS011;11047;47.904;8.110;2024-02-21T00:18:27;6.43;;;2.00;;
21771;SDS011;11047;47.904;8.110;2024-02-21T00:20:54;4.57;;;1.67;;
21771;SDS011;11047;47.904;8.110;2024-02-21T00:23:20;5.55;;;1.80;;
21771;SDS011;11047;47.904;8.110;2024-02-21T00:25:47;5.78;;;1.95;;
21771;SDS011;11047;47.904;8.110;2024-02-21T00:28:15;5.40;;;1.73;;
21771;SDS011;11047;47.904;8.110;2024-02-21T00:30:41;4.18;;;1.98;;
21771;SDS011;11047;47.904;8.110;2024-02-21T00:33:10;7.47;;;2.13;;
21771;SDS011;11047;47.904;8.110;2024-02-21T00:35:37;6.20;;;2.15;;
21771;SDS011;11047;47.904;8.110;2024-02-21T00:38:04;9.88;;;2.55;;
21771;SDS011;11047;47.904;8.110;2024-02-21T00:40:31;4.53;;;1.77;;
21771;SDS011;11047;47.904;8.110;2024-02-21T00:42:57;5.22;;;2.13;;
21771;SDS011;11047;47.904;8.110;2024-02-21T00:45:24;4.35;;;2.15;;
21771;SDS011;11047;47.904;8.110;2024-02-21T00:47:51;4.18;;;1.88;;
21771;SDS011;11047;47.904;8.110;2024-02-21T00:50:19;3.50;;;1.80;;
21771;SDS011;11047;47.904;8.110;2024-02-21T00:52:46;6.45;;;1.85;;
21771;SDS011;11047;47.904;8.110;2024-02-21T00:55:14;3.40;;;1.48;;
21771;SDS011;11047;47.904;8.110;2024-02-21T00:57:40;6.30;;;2.08;;
21771;SDS011;11047;47.904;8.110;2024-02-21T01:00:08;3.70;;;1.70;;
21771;SDS011;11047;47.904;8.110;2024-02-21T01:02:35;4.82;;;1.80;;
21771;SDS011;11047;47.904;8.110;2024-02-21T01:05:02;4.43;;;1.70;;
21771;SDS011;11047;47.904;8.110;2024-02-21T01:07:31;4.55;;;1.90;;
21771;SDS011;11047;47.904;8.110;2024-02-21T01:09:57;3.75;;;1.70;;
21771;SDS011;11047;47.904;8.110;2024-02-21T01:12:24;4.00;;;1.70;;
21771;SDS011;11047;47.904;8.110;2024-02-21T01:14:51;3.40;;;1.63;;
21771;SDS011;11047;47.904;8.110;2024-02-21T01:17:18;4.82;;;1.60;;
21771;SDS011;11047;47.904;8.110;2024-02-21T01:19:46;3.58;;;1.85;;
21771;SDS011;11047;47.904;8.110;2024-02-21T01:22:12;6.82;;;1.70;;
21771;SDS011;11047;47.904;8.110;2024-02-21T01:24:41;4.82;;;1.60;;
21771;SDS011;11047;47.904;8.110;2024-02-21T01:27:08;2.97;;;1.35;;
21771;SDS011;11047;47.904;8.110;2024-02-21T01:29:35;5.05;;;1.60;;
21771;SDS011;11047;47.904;8.110;2024-02-21T01:32:02;4.60;;;1.77;;
21771;SDS011;11047;47.904;8.110;2024-02-21T01:34:29;4.88;;;1.90;;
21771;SDS011;11047;47.904;8.110;2024-02-21T01:36:56;4.38;;;1.60;;
21771;SDS011;11047;47.904;8.110;2024-02-21T01:39:24;3.17;;;1.88;;
21771;SDS011;11047;47.904;8.110;2024-02-21T01:41:52;3.88;;;1.50;;
21771;SDS011;11047;47.904;8.110;2024-02-21T01:44:19;2.70;;;1.40;;
21771;SDS011;11047;47.904;8.110;2024-02-21T01:46:46;4.82;;;1.80;;
21771;SDS011;11047;47.904;8.110;2024-02-21T01:49:13;2.55;;;1.50;;
21771;SDS011;11047;47.904;8.110;2024-02-21T01:51:40;3.80;;;2.03;;
21771;SDS011;11047;47.904;8.110;2024-02-21T01:54:07;5.28;;;2.00;;
21771;SDS011;11047;47.904;8.110;2024-02-21T01:56:34;4.57;;;1.80;;
21771;SDS011;11047;47.904;8.110;2024-02-21T01:59:03;3.58;;;1.75;;
21771;SDS011;11047;47.904;8.110;2024-02-21T02:01:29;4.25;;;2.20;;
21771;SDS011;11047;47.904;8.110;2024-02-21T02:03:56;6.72;;;1.98;;
21771;SDS011;11047;47.904;8.110;2024-02-21T02:06:25;5.85;;;1.90;;
21771;SDS011;11047;47.904;8.110;2024-02-21T02:08:52;4.70;;;1.50;;
21771;SDS011;11047;47.904;8.110;2024-02-21T02:11:19;4.70;;;1.50;;
21771;SDS011;11047;47.904;8.110;2024-02-21T02:13:46;4.03;;;2.10;;
21771;SDS011;11047;47.904;8.110;2024-02-21T02:16:14;3.70;;;1.60;;
21771;SDS011;11047;47.904;8.110;2024-02-21T02:18:41;5.30;;;1.95;;
21771;SDS011;11047;47.904;8.110;2024-02-21T02:21:10;4.68;;;1.95;;
21771;SDS011;11047;47.904;8.110;2024-02-21T02:23:48;4.05;;;1.52;;
21771;SDS011;11047;47.904;8.110;2024-02-21T02:26:15;3.28;;;1.60;;
21771;SDS011;11047;47.904;8.110;2024-02-21T02:28:42;4.78;;;2.05;;
21771;SDS011;11047;47.904;8.110;2024-02-21T02:31:08;4.57;;;1.83;;
21771;SDS011;11047;47.904;8.110;2024-02-21T02:33:36;3.75;;;1.80;;
21771;SDS011;11047;47.904;8.110;2024-02-21T02:36:03;5.45;;;2.20;;
21771;SDS011;11047;47.904;8.110;2024-02-21T02:38:31;4.70;;;2.45;;
21771;SDS011;11047;47.904;8.110;2024-02-21T02:40:59;4.65;;;2.28;;
21771;SDS011;11047;47.904;8.110;2024-02-21T02:43:26;4.32;;;2.00;;
21771;SDS011;11047;47.904;8.110;2024-02-21T02:45:53;4.50;;;2.22;;
21771;SDS011;11047;47.904;8.110;2024-02-21T02:48:20;3.65;;;2.28;;
21771;SDS011;11047;47.904;8.110;2024-02-21T02:50:47;5.30;;;2.25;;
21771;SDS011;11047;47.904;8.110;2024-02-21T02:53:14;6.03;;;2.10;;
21771;SDS011;11047;47.904;8.110;2024-02-21T02:55:41;5.60;;;2.13;;
21771;SDS011;11047;47.904;8.110;2024-02-21T02:58:09;4.75;;;2.50;;
21771;SDS011;11047;47.904;8.110;2024-02-21T03:00:36;4.80;;;2.22;;
21771;SDS011;11047;47.904;8.110;2024-02-21T03:03:04;6.80;;;2.33;;
21771;SDS011;11047;47.904;8.110;2024-02-21T03:05:31;6.38;;;2.63;;
21771;SDS011;11047;47.904;8.110;2024-02-21T03:07:58;2.97;;;1.98;;
21771;SDS011;11047;47.904;8.110;2024-02-21T03:10:25;3.70;;;2.03;;
21771;SDS011;11047;47.904;8.110;2024-02-21T03:12:52;3.67;;;2.35;;
21771;SDS011;11047;47.904;8.110;2024-02-21T03:15:20;6.93;;;2.03;;
21771;SDS011;11047;47.904;8.110;2024-02-21T03:17:47;6.28;;;2.08;;
21771;SDS011;11047;47.904;8.110;2024-02-21T03:20:14;6.28;;;2.90;;
21771;SDS011;11047;47.904;8.110;2024-02-21T03:22:41;7.15;;;2.45;;
21771;SDS011;11047;47.904;8.110;2024-02-21T03:25:08;5.00;;;2.00;;
21771;SDS011;11047;47.904;8.110;2024-02-21T03:27:35;5.32;;;2.30;;
21771;SDS011;11047;47.904;8.110;2024-02-21T03:30:03;3.75;;;1.95;;
21771;SDS011;11047;47.904;8.110;2024-02-21T03:32:32;5.45;;;2.10;;
21771;SDS011;11047;47.904;8.110;2024-02-21T03:34:58;4.55;;;2.10;;
21771;SDS011;11047;47.904;8.110;2024-02-21T03:37:25;4.20;;;2.00;;
21771;SDS011;11047;47.904;8.110;2024-02-21T03:39:52;5.00;;;2.60;;
21771;SDS011;11047;47.904;8.110;2024-02-21T03:42:19;2.50;;;1.95;;
21771;SDS011;11047;47.904;8.110;2024-02-21T03:44:46;6.25;;;2.13;;
21771;SDS011;11047;47.904;8.110;2024-02-21T03:47:13;3.90;;;2.20;;
21771;SDS011;11047;47.904;8.110;2024-02-21T03:49:41;7.07;;;2.17;;
21771;SDS011;11047;47.904;8.110;2024-02-21T03:52:08;3.20;;;2.05;;
21771;SDS011;11047;47.904;8.110;2024-02-21T03:54:35;4.85;;;2.00;;
21771;SDS011;11047;47.904;8.110;2024-02-21T03:57:02;4.93;;;2.00;;
21771;SDS011;11047;47.904;8.110;2024-02-21T03:59:31;7.75;;;2.33;;
21771;SDS011;11047;47.904;8.110;2024-02-21T04:01:58;6.10;;;2.20;;
21771;SDS011;11047;47.904;8.110;2024-02-21T04:04:25;5.32;;;2.28;;
21771;SDS011;11047;47.904;8.110;2024-02-21T04:06:53;2.70;;;1.70;;
21771;SDS011;11047;47.904;8.110;2024-02-21T04:09:20;4.32;;;2.03;;
21771;SDS011;11047;47.904;8.110;2024-02-21T04:11:47;3.58;;;1.80;;
21771;SDS011;11047;47.904;8.110;2024-02-21T04:14:14;5.43;;;2.40;;
21771;SDS011;11047;47.904;8.110;2024-02-21T04:16:41;4.28;;;2.58;;
21771;SDS011;11047;47.904;8.110;2024-02-21T04:19:08;4.93;;;1.80;;
21771;SDS011;11047;47.904;8.110;2024-02-21T04:21:35;6.80;;;2.33;;
21771;SDS011;11047;47.904;8.110;2024-02-21T04:24:03;6.32;;;2.08;;
21771;SDS011;11047;47.904;8.110;2024-02-21T04:26:30;5.45;;;2.00;;
21771;SDS011;11047;47.904;8.110;2024-02-21T04:28:57;4.20;;;2.00;;
21771;SDS011;11047;47.904;8.110;2024-02-21T04:31:24;4.55;;;2.25;;
21771;SDS011;11047;47.904;8.110;2024-02-21T04:33:51;2.72;;;1.65;;
21771;SDS011;11047;47.904;8.110;2024-02-21T04:36:18;4.38;;;2.03;;
21771;SDS011;11047;47.904;8.110;2024-02-21T04:38:45;4.13;;;1.85;;
21771;SDS011;11047;47.904;8.110;2024-02-21T04:41:13;2.55;;;1.90;;
21771;SDS011;11047;47.904;8.110;2024-02-21T04:43:40;4.32;;;2.30;;
21771;SDS011;11047;47.904;8.110;2024-02-21T04:46:07;6.47;;;2.53;;
21771;SDS011;11047;47.904;8.110;2024-02-21T04:48:35;4.13;;;2.42;;
21771;SDS011;11047;47.904;8.110;2024-02-21T04:51:01;6.55;;;2.60;;
21771;SDS011;11047;47.904;8.110;2024-02-21T04:53:29;4.00;;;2.25;;
21771;SDS011;11047;47.904;8.110;2024-02-21T04:55:56;7.47;;;1.98;;
21771;SDS011;11047;47.904;8.110;2024-02-21T04:58:24;4.53;;;2.40;;
21771;SDS011;11047;47.904;8.110;2024-02-21T05:00:51;5.78;;;2.50;;
21771;SDS011;11047;47.904;8.110;2024-02-21T05:03:19;3.17;;;2.05;;
21771;SDS011;11047;47.904;8.110;2024-02-21T05:05:46;4.25;;;2.20;;
21771;SDS011;11047;47.904;8.110;2024-02-21T05:08:13;3.53;;;2.10;;
21771;SDS011;11047;47.904;8.110;2024-02-21T05:10:40;2.35;;;2.00;;
21771;SDS011;11047;47.904;8.110;2024-02-21T05:13:07;4.90;;;2.30;;
21771;SDS011;11047;47.904;8.110;2024-02-21T05:15:35;2.83;;;2.03;;
21771;SDS011;11047;47.904;8.110;2024-02-21T05:18:02;3.42;;;2.35;;
21771;SDS011;11047;47.904;8.110;2024-02-21T05:20:29;3.70;;;2.28;;
21771;SDS011;11047;47.904;8.110;2024-02-21T05:22:56;5.40;;;2.20;;
21771;SDS011;11047;47.904;8.110;2024-02-21T05:25:23;6.68;;;2.58;;
21771;SDS011;11047;47.904;8.110;2024-02-21T05:27:50;5.35;;;2.03;;
21771;SDS011;11047;47.904;8.110;2024-02-21T05:30:18;5.63;;;2.90;;
21771;SDS011;11047;47.904;8.110;2024-02-21T05:32:47;8.40;;;2.28;;
21771;SDS011;11047;47.904;8.110;2024-02-21T05:35:14;4.63;;;2.50;;
21771;SDS011;11047;47.904;8.110;2024-02-21T05:37:40;5.72;;;2.33;;
21771;SDS011;11047;47.904;8.110;2024-02-21T05:40:08;4.93;;;2.15;;
21771;SDS011;11047;47.904;8.110;2024-02-21T05:42:37;5.63;;;2.17;;
21771;SDS011;11047;47.904;8.110;2024-02-21T05:45:04;5.75;;;2.10;;
21771;SDS011;11047;47.904;8.110;2024-02-21T05:47:31;6.15;;;2.40;;
21771;SDS011;11047;47.904;8.110;2024-02-21T05:49:59;5.82;;;2.72;;
21771;SDS011;11047;47.904;8.110;2024-02-21T05:52:26;5.68;;;2.08;;
21771;SDS011;11047;47.904;8.110;2024-02-21T05:54:53;4.18;;;2.03;;
21771;SDS011;11047;47.904;8.110;2024-02-21T05:57:20;5.07;;;2.03;;
21771;SDS011;11047;47.904;8.110;2024-02-21T05:59:47;4.45;;;2.38;;
21771;SDS011;11047;47.904;8.110;2024-02-21T06:02:14;5.63;;;2.35;;
21771;SDS011;11047;47.904;8.110;2024-02-21T06:04:41;2.83;;;2.20;;
21771;SDS011;11047;47.904;8.110;2024-02-21T06:07:10;4.97;;;2.58;;
21771;SDS011;11047;47.904;8.110;2024-02-21T06:09:37;5.70;;;2.28;;
21771;SDS011;11047;47.904;8.110;2024-02-21T06:12:04;3.50;;;2.10;;
21771;SDS011;11047;47.904;8.110;2024-02-21T06:14:31;5.55;;;1.90;;
21771;SDS011;11047;47.904;8.110;2024-02-21T06:16:58;6.28;;;2.25;;
21771;SDS011;11047;47.904;8.110;2024-02-21T06:19:25;3.65;;;1.80;;
21771;SDS011;11047;47.904;8.110;2024-02-21T06:21:52;5.47;;;2.20;;
21771;SDS011;11047;47.904;8.110;2024-02-21T06:24:20;5.45;;;2.25;;
21771;SDS011;11047;47.904;8.110;2024-02-21T06:26:47;4.63;;;2.70;;
21771;SDS011;11047;47.904;8.110;2024-02-21T06:29:14;6.78;;;2.55;;
21771;SDS011;11047;47.904;8.110;2024-02-21T06:31:41;2.50;;;2.10;;
21771;SDS011;11047;47.904;8.110;2024-02-21T06:34:08;3.83;;;2.45;;
21771;SDS011;11047;47.904;8.110;2024-02-21T06:36:35;5.32;;;1.98;;
21771;SDS011;11047;47.904;8.110;2024-02-21T06:39:02;7.70;;;2.47;;
21771;SDS011;11047;47.904;8.110;2024-02-21T06:41:43;7.70;;;2.42;;
21771;SDS011;11047;47.904;8.110;2024-02-21T06:44:10;4.95;;;2.40;;
21771;SDS011;11047;47.904;8.110;2024-02-21T06:46:37;2.22;;;2.03;;
21771;SDS011;11047;47.904;8.110;2024-02-21T06:49:04;2.65;;;1.88;;
21771;SDS011;11047;47.904;8.110;2024-02-21T06:51:30;2.65;;;2.08;;
21771;SDS011;11047;47.904;8.110;2024-02-21T06:53:58;5.07;;;2.85;;
21771;SDS011;11047;47.904;8.110;2024-02-21T06:56:25;6.68;;;2.58;;
21771;SDS011;11047;47.904;8.110;2024-02-21T06:58:55;3.85;;;2.47;;
21771;SDS011;11047;47.904;8.110;2024-02-21T07:01:22;3.22;;;2.20;;
21771;SDS011;11047;47.904;8.110;2024-02-21T07:03:49;6.35;;;2.35;;
21771;SDS011;11047;47.904;8.110;2024-02-21T07:06:16;4.93;;;2.97;;
21771;SDS011;11047;47.904;8.110;2024-02-21T07:08:43;5.63;;;3.05;;
21771;SDS011;11047;47.904;8.110;2024-02-21T07:11:11;5.00;;;2.70;;
21771;SDS011;11047;47.904;8.110;2024-02-21T07:13:39;6.28;;;2.97;;
21771;SDS011;11047;47.904;8.110;2024-02-21T07:16:07;5.57;;;2.83;;
21771;SDS011;11047;47.904;8.110;2024-02-21T07:21:13;7.90;;;2.55;;
21771;SDS011;11047;47.904;8.110;2024-02-21T07:23:42;6.45;;;2.65;;
21771;SDS011;11047;47.904;8.110;2024-02-21T07:26:15;4.68;;;2.10;;
21771;SDS011;11047;47.904;8.110;2024-02-21T07:28:48;6.38;;;1.88;;
21771;SDS011;11047;47.904;8.110;2024-02-21T07:34:22;5.28;;;2.70;;
21771;SDS011;11047;47.904;8.110;2024-02-21T07:36:49;3.45;;;2.20;;
21771;SDS011;11047;47.904;8.110;2024-02-21T07:39:16;6.05;;;2.30;;
21771;SDS011;11047;47.904;8.110;2024-02-21T07:41:49;6.03;;;2.58;;
21771;SDS011;11047;47.904;8.110;2024-02-21T07:44:23;5.75;;;2.53;;
21771;SDS011;11047;47.904;8.110;2024-02-21T07:49:17;4.95;;;2.15;;
21771;SDS011;11047;47.904;8.110;2024-02-21T07:51:45;3.80;;;2.58;;
21771;SDS011;11047;47.904;8.110;2024-02-21T07:54:12;6.78;;;2.38;;
21771;SDS011;11047;47.904;8.110;2024-02-21T07:56:40;4.55;;;2.40;;
21771;SDS011;11047;47.904;8.110;2024-02-21T07:59:07;8.70;;;3.08;;
21771;SDS011;11047;47.904;8.110;2024-02-21T08:01:34;5.25;;;3.90;;
21771;SDS011;11047;47.904;8.110;2024-02-21T08:04:01;5.55;;;2.80;;
21771;SDS011;11047;47.904;8.110;2024-02-21T08:06:30;7.70;;;2.80;;
21771;SDS011;11047;47.904;8.110;2024-02-21T08:08:58;3.40;;;2.50;;
21771;SDS011;11047;47.904;8.110;2024-02-21T08:11:25;5.50;;;2.42;;
21771;SDS011;11047;47.904;8.110;2024-02-21T08:13:52;3.55;;;2.38;;
21771;SDS011;11047;47.904;8.110;2024-02-21T08:16:19;2.70;;;2.30;;
21771;SDS011;11047;47.904;8.110;2024-02-21T08:18:47;5.13;;;2.83;;
21771;SDS011;11047;47.904;8.110;2024-02-21T08:21:14;3.40;;;2.40;;
21771;SDS011;11047;47.904;8.110;2024-02-21T08:23:41;4.00;;;2.88;;
21771;SDS011;11047;47.904;8.110;2024-02-21T08:26:14;3.05;;;1.90;;
21771;SDS011;11047;47.904;8.110;2024-02-21T08:28:40;3.40;;;2.40;;
21771;SDS011;11047;47.904;8.110;2024-02-21T08:31:07;4.93;;;2.42;;
21771;SDS011;11047;47.904;8.110;2024-02-21T08:33:34;5.70;;;2.60;;
21771;SDS011;11047;47.904;8.110;2024-02-21T08:36:01;6.15;;;2.80;;
21771;SDS011;11047;47.904;8.110;2024-02-21T08:38:28;3.80;;;2.40;;
21771;SDS011;11047;47.904;8.110;2024-02-21T08:40:55;4.72;;;2.40;;
21771;SDS011;11047;47.904;8.110;2024-02-21T08:43:23;7.57;;;2.65;;
21771;SDS011;11047;47.904;8.110;2024-02-21T08:45:50;5.00;;;2.47;;
21771;SDS011;11047;47.904;8.110;2024-02-21T08:48:17;5.90;;;2.30;;
21771;SDS011;11047;47.904;8.110;2024-02-21T08:50:44;4.95;;;2.85;;
21771;SDS011;11047;47.904;8.110;2024-02-21T08:53:10;4.40;;;2.75;;
21771;SDS011;11047;47.904;8.110;2024-02-21T08:55:39;6.13;;;2.50;;
21771;SDS011;11047;47.904;8.110;2024-02-21T08:58:14;3.92;;;2.00;;
21771;SDS011;11047;47.904;8.110;2024-02-21T09:00:42;3.67;;;2.65;;
21771;SDS011;11047;47.904;8.110;2024-02-21T09:03:09;3.45;;;2.20;;
21771;SDS011;11047;47.904;8.110;2024-02-21T09:05:36;3.65;;;2.10;;
21771;SDS011;11047;47.904;8.110;2024-02-21T09:08:03;4.28;;;2.38;;
21771;SDS011;11047;47.904;8.110;2024-02-21T09:10:30;4.18;;;1.88;;
21771;SDS011;11047;47.904;8.110;2024-02-21T09:12:57;6.22;;;2.50;;
21771;SDS011;11047;47.904;8.110;2024-02-21T09:15:24;3.38;;;1.88;;
21771;SDS011;11047;47.904;8.110;2024-02-21T09:17:53;6.38;;;2.30;;
21771;SDS011;11047;47.904;8.110;2024-02-21T09:20:20;3.45;;;1.60;;
21771;SDS011;11047;47.904;8.110;2024-02-21T09:22:46;3.95;;;2.13;;
21771;SDS011;11047;47.904;8.110;2024-02-21T09:25:13;4.32;;;2.00;;
21771;SDS011;11047;47.904;8.110;2024-02-21T09:27:41;3.67;;;2.63;;
21771;SDS011;11047;47.904;8.110;2024-02-21T09:30:08;4.88;;;1.77;;
21771;SDS011;11047;47.904;8.110;2024-02-21T09:32:45;6.00;;;1.98;;
21771;SDS011;11047;47.904;8.110;2024-02-21T09:35:14;5.43;;;1.85;;
21771;SDS011;11047;47.904;8.110;2024-02-21T09:37:41;3.72;;;1.70;;
21771;SDS011;11047;47.904;8.110;2024-02-21T09:40:08;4.15;;;1.92;;
21771;SDS011;11047;47.904;8.110;2024-02-21T09:42:41;3.42;;;1.52;;
21771;SDS011;11047;47.904;8.110;2024-02-21T09:45:07;2.30;;;1.40;;
21771;SDS011;11047;47.904;8.110;2024-02-21T09:50:17;2.67;;;1.20;;
21771;SDS011;11047;47.904;8.110;2024-02-21T09:52:47;3.45;;;1.42;;
21771;SDS011;11047;47.904;8.110;2024-02-21T09:55:16;1.70;;;1.20;;
21771;SDS011;11047;47.904;8.110;2024-02-21T09:57:45;1.15;;;0.60;;
21771;SDS011;11047;47.904;8.110;2024-02-21T10:00:12;2.88;;;1.10;;
21771;SDS011;11047;47.904;8.110;2024-02-21T10:02:46;3.42;;;0.50;;
21771;SDS011;11047;47.904;8.110;2024-02-21T10:05:14;0.30;;;0.20;;
21771;SDS011;11047;47.904;8.110;2024-02-21T10:07:42;0.13;;;0.13;;
21771;SDS011;11047;47.904;8.110;2024-02-21T10:10:09;0.55;;;0.20;;
21771;SDS011;11047;47.904;8.110;2024-02-21T10:12:36;0.55;;;0.30;;
21771;SDS011;11047;47.904;8.110;2024-02-21T10:15:13;0.55;;;0.20;;
21771;SDS011;11047;47.904;8.110;2024-02-21T10:17:45;0.20;;;0.20;;
21771;SDS011;11047;47.904;8.110;2024-02-21T10:20:12;0.20;;;0.20;;
21771;SDS011;11047;47.904;8.110;2024-02-21T10:22:41;0.10;;;0.10;;
21771;SDS011;11047;47.904;8.110;2024-02-21T10:25:08;0.57;;;0.10;;
21771;SDS011;11047;47.904;8.110;2024-02-21T10:27:36;0.32;;;0.13;;
21771;SDS011;11047;47.904;8.110;2024-02-21T10:30:03;1.95;;;0.20;;
21771;SDS011;11047;47.904;8.110;2024-02-21T10:32:31;1.27;;;0.22;;
21771;SDS011;11047;47.904;8.110;2024-02-21T10:35:01;0.17;;;0.15;;
21771;SDS011;11047;47.904;8.110;2024-02-21T10:37:29;0.43;;;0.20;;
21771;SDS011;11047;47.904;8.110;2024-02-21T10:39:57;0.30;;;0.20;;
21771;SDS011;11047;47.904;8.110;2024-02-21T10:42:25;0.15;;;0.10;;
21771;SDS011;11047;47.904;8.110;2024-02-21T10:44:55;0.20;;;0.10;;
21771;SDS011;11047;47.904;8.110;2024-02-21T10:47:29;1.85;;;0.22;;
21771;SDS011;11047;47.904;8.110;2024-02-21T10:50:02;0.93;;;0.30;;
21771;SDS011;11047;47.904;8.110;2024-02-21T10:52:32;0.20;;;0.20;;
21771;SDS011;11047;47.904;8.110;2024-02-21T10:55:09;0.20;;;0.20;;
21771;SDS011;11047;47.904;8.110;2024-02-21T10:57:42;0.20;;;0.20;;
21771;SDS011;11047;47.904;8.110;2024-02-21T11:00:10;1.85;;;0.20;;
21771;SDS011;11047;47.904;8.110;2024-02-21T11:02:38;0.50;;;0.30;;
21771;SDS011;11047;47.904;8.110;2024-02-21T11:05:06;0.45;;;0.25;;
21771;SDS011;11047;47.904;8.110;2024-02-21T11:07:35;0.35;;;0.20;;
21771;SDS011;11047;47.904;8.110;2024-02-21T11:10:03;0.20;;;0.20;;
21771;SDS011;11047;47.904;8.110;2024-02-21T11:12:34;0.20;;;0.10;;
21771;SDS011;11047;47.904;8.110;2024-02-21T11:15:05;2.13;;;0.20;;
21771;SDS011;11047;47.904;8.110;2024-02-21T11:17:33;0.30;;;0.30;;
21771;SDS011;11047;47.904;8.110;2024-02-21T11:20:10;0.30;;;0.20;;
21771;SDS011;11047;47.904;8.110;2024-02-21T11:22:41;0.20;;;0.20;;
21771;SDS011;11047;47.904;8.110;2024-02-21T11:25:08;0.60;;;0.20;;
21771;SDS011;11047;47.904;8.110;2024-02-21T11:27:38;0.52;;;0.28;;
21771;SDS011;11047;47.904;8.110;2024-02-21T11:30:05;0.30;;;0.30;;
21771;SDS011;11047;47.904;8.110;2024-02-21T11:32:35;0.25;;;0.20;;
21771;SDS011;11047;47.904;8.110;2024-02-21T11:35:04;0.20;;;0.20;;
21771;SDS011;11047;47.904;8.110;2024-02-21T11:37:32;0.40;;;0.30;;
21771;SDS011;11047;47.904;8.110;2024-02-21T11:40:02;1.10;;;0.47;;
21771;SDS011;11047;47.904;8.110;2024-02-21T11:42:32;0.75;;;0.30;;
21771;SDS011;11047;47.904;8.110;2024-02-21T11:45:00;0.40;;;0.30;;
21771;SDS011;11047;47.904;8.110;2024-02-21T11:47:28;2.08;;;0.30;;
21771;SDS011;11047;47.904;8.110;2024-02-21T11:49:55;0.10;;;0.10;;
21771;SDS011;11047;47.904;8.110;2024-02-21T11:52:22;0.40;;;0.28;;
21771;SDS011;11047;47.904;8.110;2024-02-21T11:54:51;0.10;;;0.10;;
21771;SDS011;11047;47.904;8.110;2024-02-21T11:57:19;0.20;;;0.20;;
21771;SDS011;11047;47.904;8.110;2024-02-21T11:59:46;0.30;;;0.30;;
21771;SDS011;11047;47.904;8.110;2024-02-21T12:02:16;0.30;;;0.30;;
21771;SDS011;11047;47.904;8.110;2024-02-21T12:04:43;0.52;;;0.28;;
21771;SDS011;11047;47.904;8.110;2024-02-21T12:07:10;0.50;;;0.50;;
21771;SDS011;11047;47.904;8.110;2024-02-21T12:09:37;1.58;;;0.30;;
21771;SDS011;11047;47.904;8.110;2024-02-21T12:12:04;0.85;;;0.30;;
21771;SDS011;11047;47.904;8.110;2024-02-21T12:14:32;0.20;;;0.20;;
21771;SDS011;11047;47.904;8.110;2024-02-21T12:17:01;0.35;;;0.30;;
21771;SDS011;11047;47.904;8.110;2024-02-21T12:19:32;1.15;;;0.20;;
21771;SDS011;11047;47.904;8.110;2024-02-21T12:21:59;1.27;;;0.30;;
21771;SDS011;11047;47.904;8.110;2024-02-21T12:24:30;0.20;;;0.20;;
21771;SDS011;11047;47.904;8.110;2024-02-21T12:26:57;1.10;;;0.50;;
21771;SDS011;11047;47.904;8.110;2024-02-21T12:29:25;0.20;;;0.20;;
21771;SDS011;11047;47.904;8.110;2024-02-21T12:31:52;4.35;;;0.20;;
21771;SDS011;11047;47.904;8.110;2024-02-21T12:34:19;3.70;;;0.40;;
21771;SDS011;11047;47.904;8.110;2024-02-21T12:36:48;0.50;;;0.30;;
21771;SDS011;11047;47.904;8.110;2024-02-21T12:39:17;0.43;;;0.35;;
21771;SDS011;11047;47.904;8.110;2024-02-21T12:41:43;0.20;;;0.20;;
21771;SDS011;11047;47.904;8.110;2024-02-21T12:44:10;0.15;;;0.15;;
21771;SDS011;11047;47.904;8.110;2024-02-21T12:46:37;3.60;;;0.52;;
21771;SDS011;11047;47.904;8.110;2024-02-21T12:49:05;0.35;;;0.30;;
21771;SDS011;11047;47.904;8.110;2024-02-21T12:51:33;0.38;;;0.30;;
21771;SDS011;11047;47.904;8.110;2024-02-21T12:54:01;0.20;;;0.20;;
21771;SDS011;11047;47.904;8.110;2024-02-21T12:56:36;0.60;;;0.20;;
21771;SDS011;11047;47.904;8.110;2024-02-21T12:59:05;0.20;;;0.20;;
21771;SDS011;11047;47.904;8.110;2024-02-21T13:01:44;0.20;;;0.20;;
21771;SDS011;11047;47.904;8.110;2024-02-21T13:04:11;0.20;;;0.20;;
21771;SDS011;11047;47.904;8.110;2024-02-21T13:06:38;0.25;;;0.20;;
21771;SDS011;11047;47.904;8.110;2024-02-21T13:09:06;0.70;;;0.50;;
21771;SDS011;11047;47.904;8.110;2024-02-21T13:11:36;0.38;;;0.20;;
21771;SDS011;11047;47.904;8.110;2024-02-21T13:14:03;0.20;;;0.20;;
21771;SDS011;11047;47.904;8.110;2024-02-21T13:16:30;0.60;;;0.25;;
21771;SDS011;11047;47.904;8.110;2024-02-21T13:18:56;2.05;;;0.30;;
21771;SDS011;11047;47.904;8.110;2024-02-21T13:21:23;0.20;;;0.20;;
21771;SDS011;11047;47.904;8.110;2024-02-21T13:23:50;0.80;;;0.30;;
21771;SDS011;11047;47.904;8.110;2024-02-21T13:26:19;0.38;;;0.30;;
21771;SDS011;11047;47.904;8.110;2024-02-21T13:28:45;0.30;;;0.30;;
21771;SDS011;11047;47.904;8.110;2024-02-21T13:31:13;0.82;;;0.30;;
21771;SDS011;11047;47.904;8.110;2024-02-21T13:33:41;0.47;;;0.32;;
21771;SDS011;11047;47.904;8.110;2024-02-21T13:36:09;0.20;;;0.20;;
21771;SDS011;11047;47.904;8.110;2024-02-21T13:38:37;0.95;;;0.30;;
21771;SDS011;11047;47.904;8.110;2024-02-21T13:41:10;0.20;;;0.20;;
21771;SDS011;11047;47.904;8.110;2024-02-21T13:43:46;1.13;;;0.30;;
21771;SDS011;11047;47.904;8.110;2024-02-21T13:46:14;0.63;;;0.32;;
21771;SDS011;11047;47.904;8.110;2024-02-21T13:48:40;0.63;;;0.50;;
21771;SDS011;11047;47.904;8.110;2024-02-21T13:51:07;0.47;;;0.40;;
21771;SDS011;11047;47.904;8.110;2024-02-21T13:53:34;1.48;;;0.40;;
21771;SDS011;11047;47.904;8.110;2024-02-21T13:56:01;1.00;;;0.40;;
21771;SDS011;11047;47.904;8.110;2024-02-21T13:58:28;0.30;;;0.30;;
21771;SDS011;11047;47.904;8.110;2024-02-21T14:00:56;0.20;;;0.20;;
21771;SDS011;11047;47.904;8.110;2024-02-21T14:03:23;0.40;;;0.30;;
21771;SDS011;11047;47.904;8.110;2024-02-21T14:05:50;0.28;;;0.28;;
21771;SDS011;11047;47.904;8.110;2024-02-21T14:08:17;0.45;;;0.30;;
21771;SDS011;11047;47.904;8.110;2024-02-21T14:10:51;0.63;;;0.32;;
21771;SDS011;11047;47.904;8.110;2024-02-21T14:13:18;3.53;;;0.52;;
21771;SDS011;11047;47.904;8.110;2024-02-21T14:15:45;1.25;;;0.50;;
21771;SDS011;11047;47.904;8.110;2024-02-21T14:18:14;0.43;;;0.40;;
21771;SDS011;11047;47.904;8.110;2024-02-21T14:20:42;1.02;;;0.50;;
21771;SDS011;11047;47.904;8.110;2024-02-21T14:23:09;0.70;;;0.40;;
21771;SDS011;11047;47.904;8.110;2024-02-21T14:25:37;1.38;;;0.47;;
21771;SDS011;11047;47.904;8.110;2024-02-21T14:28:05;1.10;;;0.50;;
21771;SDS011;11047;47.904;8.110;2024-02-21T14:30:34;1.60;;;0.50;;
21771;SDS011;11047;47.904;8.110;2024-02-21T14:33:01;2.28;;;0.60;;
21771;SDS011;11047;47.904;8.110;2024-02-21T14:35:29;1.02;;;0.50;;
21771;SDS011;11047;47.904;8.110;2024-02-21T14:37:56;0.88;;;0.55;;
21771;SDS011;11047;47.904;8.110;2024-02-21T14:40:23;0.95;;;0.50;;
21771;SDS011;11047;47.904;8.110;2024-02-21T14:42:50;3.60;;;0.60;;
21771;SDS011;11047;47.904;8.110;2024-02-21T14:45:17;1.63;;;0.50;;
21771;SDS011;11047;47.904;8.110;2024-02-21T14:47:44;4.45;;;0.60;;
21771;SDS011;11047;47.904;8.110;2024-02-21T14:50:11;0.30;;;0.30;;
21771;SDS011;11047;47.904;8.110;2024-02-21T14:52:40;2.50;;;0.55;;
21771;SDS011;11047;47.904;8.110;2024-02-21T14:55:07;0.77;;;0.40;;
21771;SDS011;11047;47.904;8.110;2024-02-21T14:57:34;0.63;;;0.45;;
21771;SDS011;11047;47.904;8.110;2024-02-21T15:00:03;0.90;;;0.50;;
21771;SDS011;11047;47.904;8.110;2024-02-21T15:02:33;0.35;;;0.30;;